^^
Meteo Knjazevac Station Historical Data
Daily Summary for March 4, 2021 Units:  Metric    English   Both
Daily Weekly Monthly Yearly Custom
  High: Low: Average:
Temperature: 11.9 °C 7.6 °C 9.3 °C
Dew Point: 8.4 °C 6.1 °C 6.9 °C
Humidity: 91% 79% 86%
Wind Speed: 4.8km/h 0km/h 1.8km/h
Wind Gust: 9.7km/h - -
Wind- - West
Pressure: 1020.5 hPa 1019.9 hPa -
Precipitation: 0 mm    
Historical Graphs
 
 
Tabular Data for March 4, 2021
Time Temperature Dew Point Pressure Wind Wind Speed Wind Gust Humidity Rainfall Rate (Hourly) solar Conditions
00:00 11.9 °C 8.4 °C 1020.5 hPa Calm     79% 0 mm 0 W/m2
00:10 11.7 °C 8.2 °C 1020.2 hPa Calm   1.6 km/h 79% 0 mm 0 W/m2
00:20 11.5 °C 8 °C 1020.5 hPa NW 1.6 km/h 3.2 km/h 79% 0 mm 0 W/m2
00:30 11.3 °C 8 °C 1020.5 hPa Calm   3.2 km/h 80% 0 mm 0 W/m2
00:40 11.1 °C 7.8 °C 1020.5 hPa West 1.6 km/h 3.2 km/h 80% 0 mm 0 W/m2
00:50 10.9 °C 7.8 °C 1020.5 hPa NW 1.6 km/h 4.8 km/h 81% 0 mm 0 W/m2
01:00 10.7 °C 7.6 °C 1020.5 hPa West 1.6 km/h 3.2 km/h 81% 0 mm 0 W/m2
01:10 10.3 °C 7.2 °C 1020.5 hPa WSW 1.6 km/h 3.2 km/h 81% 0 mm 0 W/m2
01:20 10.1 °C 7.5 °C 1020.5 hPa WNW 3.2 km/h 8 km/h 84% 0 mm 0 W/m2
01:30 10.1 °C 7.5 °C 1020.5 hPa WNW 1.6 km/h 6.4 km/h 84% 0 mm 0 W/m2
01:40 10.1 °C 7.5 °C 1020.2 hPa WNW 1.6 km/h 3.2 km/h 84% 0 mm 0 W/m2
01:50 9.9 °C 7.3 °C 1020.2 hPa Calm   3.2 km/h 84% 0 mm 0 W/m2
02:00 9.7 °C 7.1 °C 1020.5 hPa Calm   3.2 km/h 84% 0 mm 0 W/m2
02:10 9.5 °C 6.9 °C 1020.2 hPa Calm   3.2 km/h 84% 0 mm 0 W/m2
02:20 9.3 °C 6.9 °C 1020.2 hPa NW 1.6 km/h 3.2 km/h 85% 0 mm 0 W/m2
02:30 9.3 °C 6.9 °C 1020.2 hPa Calm   3.2 km/h 85% 0 mm 0 W/m2
02:40 9.2 °C 6.8 °C 1020.2 hPa Calm   3.2 km/h 85% 0 mm 0 W/m2
02:50 8.9 °C 6.5 °C 1020.5 hPa WSW 3.2 km/h 4.8 km/h 85% 0 mm 0 W/m2
03:00 8.7 °C 6.5 °C 1020.2 hPa WSW 3.2 km/h 9.7 km/h 86% 0 mm 0 W/m2
03:10 8.6 °C 6.7 °C 1020.2 hPa West 4.8 km/h 8 km/h 88% 0 mm 0 W/m2
03:20 8.6 °C 6.9 °C 1020.2 hPa West 3.2 km/h 8 km/h 89% 0 mm 0 W/m2
03:30 8.6 °C 6.9 °C 1020.2 hPa WSW 3.2 km/h 4.8 km/h 89% 0 mm 0 W/m2
03:40 8.4 °C 6.5 °C 1020.2 hPa West 3.2 km/h 4.8 km/h 88% 0 mm 0 W/m2
03:50 8.4 °C 6.7 °C 1020.2 hPa NW 1.6 km/h 8 km/h 89% 0 mm 0 W/m2
04:00 8.4 °C 6.7 °C 1020.2 hPa WNW 1.6 km/h 3.2 km/h 89% 0 mm 0 W/m2
04:10 8.4 °C 6.7 °C 1019.9 hPa Calm   3.2 km/h 89% 0 mm 0 W/m2
04:20 8.2 °C 6.3 °C 1019.9 hPa Calm   3.2 km/h 88% 0 mm 0 W/m2
04:30 8.1 °C 6.4 °C 1019.9 hPa Calm   3.2 km/h 89% 0 mm 0 W/m2
04:40 8 °C 6.3 °C 1019.9 hPa WNW 1.6 km/h 3.2 km/h 89% 0 mm 0 W/m2
04:50 7.9 °C 6.2 °C 1019.9 hPa WNW 3.2 km/h 8 km/h 89% 0 mm 0 W/m2
05:00 7.9 °C 6.3 °C 1019.9 hPa West 4.8 km/h 8 km/h 90% 0 mm 0 W/m2
05:10 7.8 °C 6.4 °C 1019.9 hPa West 3.2 km/h 6.4 km/h 91% 0 mm 0 W/m2
05:20 7.8 °C 6.3 °C 1019.9 hPa West 3.2 km/h 8 km/h 90% 0 mm 0 W/m2
05:30 7.7 °C 6.2 °C 1019.9 hPa West 1.6 km/h 6.4 km/h 90% 0 mm 0 W/m2
05:40 7.6 °C 6.1 °C 1019.9 hPa WNW 1.6 km/h 3.2 km/h 90% 0 mm 0 W/m2
Knjazevac, Serbia
Compliments of Weather Underground - 2 mb